Springdale, Montana
Current Conditions -  °F | °C
As of 2:53 AM on Tuesday 21 Oct 2014 (Local Time) from KLVM Reporting Station
Clear Clear  
Wind Chill: 54°   Ceiling: Unl
Heat Index: 54°   Visibility: 10mi
Dew Point: 34°   Wind: 0mph
Humidity: 47%   Direction: NA
Pressure: 29.8"   Gusts: NA
Location:  45.74°N, 110.22°W
Report Text: KLVM 210853Z AUTO 00000KT 10SM CLR 12/01 A2980 RMK AO2 SLP052 T01220011 55005
Loading
Personal Weather Stations






























Interactive Weather Map
Tropical Storm Tracking
New forecast layout! Learn more

10-Day Weather Forecast

Advertisements
Track Severe Weather on mobile